createdAt,value
2018-06-12T00:00:24.998Z,17.00
2018-06-12T00:00:58.270Z,16.90
2018-06-12T00:01:31.511Z,17.00
2018-06-12T00:02:04.802Z,17.10
2018-06-12T00:02:38.048Z,17.00
2018-06-12T00:03:11.301Z,17.00
2018-06-12T00:03:44.561Z,17.00
2018-06-12T00:04:17.848Z,17.10
2018-06-12T00:04:51.134Z,17.00
2018-06-12T00:05:24.455Z,16.90
2018-06-12T00:05:57.793Z,16.90
2018-06-12T00:06:31.080Z,17.00
2018-06-12T00:07:04.345Z,17.00
2018-06-12T00:07:37.596Z,17.00
2018-06-12T00:08:10.903Z,17.10
2018-06-12T00:08:44.186Z,17.00
2018-06-12T00:09:17.450Z,17.00
2018-06-12T00:09:50.708Z,17.10
2018-06-12T00:10:24.034Z,17.00
2018-06-12T00:10:57.286Z,17.00
2018-06-12T00:11:30.550Z,17.00
2018-06-12T00:12:03.896Z,16.90
2018-06-12T00:12:37.157Z,16.90
2018-06-12T00:13:10.432Z,16.90
2018-06-12T00:13:43.685Z,17.00
2018-06-12T00:14:16.990Z,17.00
2018-06-12T00:14:50.433Z,17.00
2018-06-12T00:15:23.662Z,17.00
2018-06-12T00:15:56.931Z,16.90
2018-06-12T00:16:30.181Z,17.00
2018-06-12T00:17:03.547Z,17.00
2018-06-12T00:17:36.773Z,16.90
2018-06-12T00:18:10.069Z,16.90
2018-06-12T00:18:43.281Z,16.90
2018-06-12T00:19:16.501Z,16.90
2018-06-12T00:19:49.769Z,16.80
2018-06-12T00:20:23.048Z,16.90
2018-06-12T00:20:56.332Z,16.90
2018-06-12T00:21:29.565Z,16.80
2018-06-12T00:22:02.869Z,16.90
2018-06-12T00:22:36.152Z,16.70
2018-06-12T00:23:09.383Z,16.80
2018-06-12T00:23:42.636Z,16.80
2018-06-12T00:24:15.865Z,16.80
2018-06-12T00:24:49.089Z,16.80
2018-06-12T00:25:22.367Z,16.80
2018-06-12T00:25:55.646Z,16.80
2018-06-12T00:26:28.894Z,16.70
2018-06-12T00:27:02.133Z,16.80
2018-06-12T00:27:35.386Z,16.80
2018-06-12T00:28:08.628Z,16.80
2018-06-12T00:28:41.846Z,16.70
2018-06-12T00:29:15.150Z,16.80
2018-06-12T00:29:48.391Z,16.80
2018-06-12T00:30:21.634Z,16.80
2018-06-12T00:30:54.878Z,16.80
2018-06-12T00:31:28.120Z,16.80
2018-06-12T00:32:01.387Z,16.80
2018-06-12T00:32:34.645Z,16.70
2018-06-12T00:33:07.869Z,16.70
2018-06-12T00:33:41.105Z,16.70
2018-06-12T00:34:14.372Z,16.70
2018-06-12T00:34:47.637Z,16.70
2018-06-12T00:35:20.894Z,16.80
2018-06-12T00:35:54.139Z,16.60
2018-06-12T00:36:27.424Z,16.70
2018-06-12T00:37:00.684Z,16.60
2018-06-12T00:37:33.917Z,16.70
2018-06-12T00:38:07.189Z,16.70
2018-06-12T00:38:40.438Z,16.70
2018-06-12T00:39:13.714Z,16.60
2018-06-12T00:39:47.036Z,16.70
2018-06-12T00:40:20.312Z,16.60
2018-06-12T00:40:53.553Z,16.70
2018-06-12T00:41:26.843Z,16.60
2018-06-12T00:42:00.179Z,16.60
2018-06-12T00:42:33.444Z,16.70
2018-06-12T00:43:06.689Z,16.60
2018-06-12T00:43:39.943Z,16.60
2018-06-12T00:44:13.179Z,16.60
2018-06-12T00:44:46.387Z,16.50
2018-06-12T00:45:19.598Z,16.50
2018-06-12T00:45:52.839Z,16.50
2018-06-12T00:46:26.104Z,16.50
2018-06-12T00:46:59.361Z,16.60
2018-06-12T00:47:32.592Z,16.50
2018-06-12T00:48:05.877Z,16.60
2018-06-12T00:48:39.129Z,16.50
2018-06-12T00:49:12.379Z,16.50
2018-06-12T00:49:45.611Z,16.60
2018-06-12T00:50:18.936Z,16.50
2018-06-12T00:50:52.199Z,16.40
2018-06-12T00:51:25.429Z,16.40
2018-06-12T00:51:58.717Z,16.40
2018-06-12T00:52:31.925Z,16.50
2018-06-12T00:53:05.187Z,16.50
2018-06-12T00:53:38.447Z,16.40
2018-06-12T00:54:11.633Z,16.50
2018-06-12T00:54:44.867Z,16.50
2018-06-12T00:55:18.147Z,16.30
2018-06-12T00:55:51.361Z,16.30
2018-06-12T00:56:41.887Z,16.50
2018-06-12T00:57:15.103Z,16.50
2018-06-12T00:57:48.365Z,16.40
2018-06-12T00:58:21.667Z,16.50
2018-06-12T00:58:55.017Z,16.40
2018-06-12T00:59:28.264Z,16.50
2018-06-12T01:00:01.542Z,16.50
2018-06-12T01:00:34.874Z,16.40
2018-06-12T01:01:08.167Z,16.40
2018-06-12T01:01:41.454Z,16.50
2018-06-12T01:02:14.713Z,16.40
2018-06-12T01:02:47.949Z,16.40
2018-06-12T01:03:21.199Z,16.40
2018-06-12T01:03:54.491Z,16.50
2018-06-12T01:04:27.758Z,16.40
2018-06-12T01:05:01.079Z,16.40
2018-06-12T01:05:34.319Z,16.40
2018-06-12T01:06:07.607Z,16.40
2018-06-12T01:06:40.879Z,16.50
2018-06-12T01:07:14.151Z,16.30
2018-06-12T01:07:47.469Z,16.40
2018-06-12T01:08:20.711Z,16.30
2018-06-12T01:08:54.022Z,16.30
2018-06-12T01:09:27.293Z,16.30
2018-06-12T01:10:00.587Z,16.20
2018-06-12T01:10:33.817Z,16.30
2018-06-12T01:11:07.083Z,16.30
2018-06-12T01:11:40.336Z,16.20
2018-06-12T01:12:13.627Z,16.10
2018-06-12T01:12:46.906Z,16.30
2018-06-12T01:13:20.191Z,16.30
2018-06-12T01:13:53.443Z,16.20
2018-06-12T01:14:26.734Z,16.30
2018-06-12T01:15:00.377Z,16.20
2018-06-12T01:15:33.671Z,16.20
2018-06-12T01:16:06.933Z,16.20
2018-06-12T01:16:40.271Z,16.20
2018-06-12T01:17:13.537Z,16.30
2018-06-12T01:17:46.799Z,16.20
2018-06-12T01:18:20.082Z,16.20
2018-06-12T01:18:53.321Z,16.20
2018-06-12T01:19:26.631Z,16.20
2018-06-12T01:19:59.879Z,16.10
2018-06-12T01:20:33.125Z,16.20
2018-06-12T01:21:06.360Z,16.30
2018-06-12T01:21:39.629Z,16.30
2018-06-12T01:22:12.926Z,16.20
2018-06-12T01:22:46.229Z,16.30
2018-06-12T01:23:20.173Z,16.20
2018-06-12T01:23:53.404Z,16.20
2018-06-12T01:24:26.637Z,16.10
2018-06-12T01:24:59.943Z,16.10
2018-06-12T01:25:33.193Z,16.10
2018-06-12T01:26:06.411Z,16.10
2018-06-12T01:26:39.642Z,16.10
2018-06-12T01:27:12.871Z,16.10
2018-06-12T01:27:46.063Z,16.10
2018-06-12T01:28:19.305Z,16.10
2018-06-12T01:28:52.552Z,16.00
2018-06-12T01:29:25.809Z,16.20
2018-06-12T01:29:59.025Z,16.10
2018-06-12T01:30:32.291Z,16.00
2018-06-12T01:31:05.572Z,16.10
2018-06-12T01:31:38.821Z,16.00
2018-06-12T01:32:12.088Z,16.10
2018-06-12T01:32:45.374Z,16.10
2018-06-12T01:33:18.569Z,16.00
2018-06-12T01:33:51.772Z,16.00
2018-06-12T01:34:25.022Z,16.00
2018-06-12T01:34:58.292Z,16.00
2018-06-12T01:35:31.595Z,16.00
2018-06-12T01:36:04.835Z,16.00
2018-06-12T01:36:38.121Z,16.00
2018-06-12T01:37:11.405Z,16.00
2018-06-12T01:37:44.679Z,16.10
2018-06-12T01:38:17.909Z,16.00
2018-06-12T01:38:51.176Z,16.00
2018-06-12T01:39:24.411Z,16.10
2018-06-12T01:39:57.657Z,16.00
2018-06-12T01:40:30.919Z,16.10
2018-06-12T01:41:04.222Z,16.10
2018-06-12T01:41:37.461Z,16.10
2018-06-12T01:42:10.731Z,16.10
2018-06-12T01:42:43.990Z,16.20
2018-06-12T01:43:17.246Z,16.10
2018-06-12T01:43:50.481Z,16.20
2018-06-12T01:44:23.711Z,16.20
2018-06-12T01:44:56.985Z,16.20
2018-06-12T01:45:30.229Z,16.20
2018-06-12T01:46:03.475Z,16.20
2018-06-12T01:46:36.800Z,16.10
2018-06-12T01:47:10.001Z,16.20
2018-06-12T01:47:43.281Z,16.10
2018-06-12T01:48:16.522Z,16.30
2018-06-12T01:48:49.811Z,16.30
2018-06-12T01:49:23.042Z,16.20
2018-06-12T01:49:56.309Z,16.00
2018-06-12T01:50:29.547Z,16.20
2018-06-12T01:51:02.822Z,16.30
2018-06-12T01:51:36.137Z,16.20
2018-06-12T01:52:09.379Z,16.10
2018-06-12T01:52:42.783Z,16.20
2018-06-12T01:53:16.049Z,16.10
2018-06-12T01:53:49.288Z,16.30
2018-06-12T01:54:22.538Z,16.20
2018-06-12T01:54:55.812Z,16.30
2018-06-12T01:55:29.090Z,16.30
2018-06-12T01:56:02.348Z,16.20
2018-06-12T01:56:35.564Z,16.20
2018-06-12T01:57:08.817Z,16.20
2018-06-12T01:57:42.104Z,16.30
2018-06-12T01:58:15.349Z,16.20
2018-06-12T01:58:48.573Z,16.30
2018-06-12T01:59:21.805Z,16.20
2018-06-12T01:59:55.052Z,16.20
2018-06-12T02:00:28.337Z,16.20
2018-06-12T02:01:01.595Z,16.20
2018-06-12T02:01:34.858Z,16.20
2018-06-12T02:02:08.110Z,16.20
2018-06-12T02:02:41.946Z,16.20
2018-06-12T02:03:15.268Z,16.20
2018-06-12T02:03:48.527Z,16.10
2018-06-12T02:04:21.765Z,16.20
2018-06-12T02:04:55.020Z,16.10
2018-06-12T02:05:28.331Z,16.00
2018-06-12T02:06:01.586Z,16.00
2018-06-12T02:06:34.813Z,16.10
2018-06-12T02:07:08.068Z,16.10
2018-06-12T02:07:41.255Z,16.20
2018-06-12T02:08:14.484Z,16.10
2018-06-12T02:08:47.728Z,16.10
2018-06-12T02:09:20.967Z,16.10
2018-06-12T02:09:54.238Z,16.10
2018-06-12T02:10:27.480Z,16.10
2018-06-12T02:11:00.719Z,16.00
2018-06-12T02:11:33.989Z,16.10
2018-06-12T02:12:07.232Z,16.10
2018-06-12T02:12:40.534Z,16.00
2018-06-12T02:13:13.775Z,16.10
2018-06-12T02:13:47.006Z,16.00
2018-06-12T02:14:20.277Z,16.00
2018-06-12T02:14:53.494Z,16.00
2018-06-12T02:15:26.753Z,16.00
2018-06-12T02:16:00.000Z,15.90
2018-06-12T02:16:33.260Z,15.80
2018-06-12T02:17:06.577Z,15.80
2018-06-12T02:17:39.775Z,15.70
2018-06-12T02:18:13.061Z,15.80
2018-06-12T02:18:46.303Z,15.80
2018-06-12T02:19:19.560Z,15.70
2018-06-12T02:19:52.824Z,15.70
2018-06-12T02:20:26.460Z,15.60
2018-06-12T02:20:59.772Z,15.70
2018-06-12T02:21:33.032Z,15.60
2018-06-12T02:22:06.350Z,15.70
2018-06-12T02:22:39.601Z,15.60
2018-06-12T02:23:12.856Z,15.60
2018-06-12T02:23:46.071Z,15.50
2018-06-12T02:24:19.321Z,15.50
2018-06-12T02:24:52.617Z,15.60
2018-06-12T02:25:25.876Z,15.50
2018-06-12T02:25:59.106Z,15.50
2018-06-12T02:26:32.370Z,15.50
2018-06-12T02:27:05.635Z,15.50
2018-06-12T02:27:38.890Z,15.60
2018-06-12T02:28:12.111Z,15.50
2018-06-12T02:28:45.386Z,15.40
2018-06-12T02:29:18.605Z,15.40
2018-06-12T02:29:51.843Z,15.40
2018-06-12T02:30:25.094Z,15.50
2018-06-12T02:30:58.368Z,15.50
2018-06-12T02:31:31.664Z,15.40
2018-06-12T02:32:04.961Z,15.50
2018-06-12T02:32:38.222Z,15.50
2018-06-12T02:33:11.823Z,15.50
2018-06-12T02:33:45.074Z,15.70
2018-06-12T02:34:18.388Z,15.70
2018-06-12T02:34:51.605Z,15.60
2018-06-12T02:35:24.910Z,15.60
2018-06-12T02:35:58.161Z,15.70
2018-06-12T02:36:31.481Z,15.70
2018-06-12T02:37:04.763Z,15.70
2018-06-12T02:37:38.061Z,15.60
2018-06-12T02:38:11.347Z,15.70
2018-06-12T02:38:44.582Z,15.70
2018-06-12T02:39:17.812Z,15.80
2018-06-12T02:39:51.055Z,15.70
2018-06-12T02:40:24.314Z,15.60
2018-06-12T02:40:57.539Z,15.80
2018-06-12T02:41:30.803Z,15.70
2018-06-12T02:42:04.018Z,15.80
2018-06-12T02:42:37.281Z,15.80
2018-06-12T02:43:10.575Z,15.80
2018-06-12T02:43:43.805Z,15.80
2018-06-12T02:44:17.085Z,15.80
2018-06-12T02:44:50.332Z,15.90
2018-06-12T02:45:23.564Z,15.90
2018-06-12T02:45:56.842Z,15.90
2018-06-12T02:46:30.131Z,15.90
2018-06-12T02:47:03.483Z,16.00
2018-06-12T02:47:36.780Z,15.90
2018-06-12T02:48:10.040Z,15.90
2018-06-12T02:48:43.273Z,16.00
2018-06-12T02:49:16.503Z,16.00
2018-06-12T02:49:49.740Z,15.90
2018-06-12T02:50:22.991Z,16.00
2018-06-12T02:50:56.235Z,16.00
2018-06-12T02:51:29.525Z,16.00
2018-06-12T02:52:02.791Z,16.00
2018-06-12T02:52:36.011Z,16.00
2018-06-12T02:53:09.231Z,16.00
2018-06-12T02:53:42.458Z,16.00
2018-06-12T02:54:15.710Z,16.00
2018-06-12T02:54:49.007Z,16.00
2018-06-12T02:55:22.234Z,16.10
2018-06-12T02:55:55.455Z,16.10
2018-06-12T02:56:28.691Z,16.00
2018-06-12T03:06:51.957Z,16.00
2018-06-12T03:07:25.224Z,16.10
2018-06-12T03:07:58.526Z,16.10
2018-06-12T03:08:31.830Z,16.00
2018-06-12T03:09:08.195Z,16.10
2018-06-12T03:09:41.430Z,16.10
2018-06-12T03:10:14.660Z,16.00
2018-06-12T03:10:47.891Z,16.10
2018-06-12T03:11:21.137Z,16.10
2018-06-12T03:11:54.404Z,16.10
2018-06-12T03:12:27.635Z,16.00
2018-06-12T03:13:01.002Z,16.10
2018-06-12T03:13:34.327Z,16.00
2018-06-12T03:14:07.513Z,16.00
2018-06-12T03:14:40.767Z,16.10
2018-06-12T03:15:14.017Z,16.00
2018-06-12T03:15:47.299Z,16.00
2018-06-12T03:16:21.298Z,16.00
2018-06-12T03:16:54.549Z,16.10
2018-06-12T03:17:27.806Z,16.00
2018-06-12T03:18:01.081Z,16.10
2018-06-12T03:18:34.325Z,16.00
2018-06-12T03:19:07.551Z,16.00
2018-06-12T03:19:40.829Z,16.10
2018-06-12T03:20:14.079Z,16.00
2018-06-12T03:20:47.365Z,16.00
2018-06-12T03:21:20.585Z,15.90
2018-06-12T03:21:53.852Z,16.00
2018-06-12T03:22:27.165Z,16.00
2018-06-12T03:23:00.401Z,16.00
2018-06-12T03:23:33.687Z,16.10
2018-06-12T03:24:07.211Z,16.10
2018-06-12T03:24:40.447Z,16.10
2018-06-12T03:25:13.669Z,16.10
2018-06-12T03:25:57.507Z,16.10
2018-06-12T03:26:30.741Z,16.10
2018-06-12T03:27:03.993Z,16.10
2018-06-12T03:27:37.255Z,16.00
2018-06-12T03:28:10.461Z,16.10
2018-06-12T03:28:43.733Z,16.20
2018-06-12T03:29:16.972Z,16.20
2018-06-12T03:29:50.205Z,16.20
2018-06-12T03:30:23.469Z,16.20
2018-06-12T03:30:56.721Z,16.20
2018-06-12T03:31:29.964Z,16.10
2018-06-12T03:32:03.205Z,16.10
2018-06-12T03:32:36.486Z,16.10
2018-06-12T03:33:09.730Z,16.10
2018-06-12T03:33:42.959Z,16.20
2018-06-12T03:34:16.202Z,16.20
2018-06-12T03:34:49.411Z,16.20
2018-06-12T03:35:22.644Z,16.20
2018-06-12T03:35:55.843Z,16.20
2018-06-12T03:36:29.133Z,16.20
2018-06-12T03:37:02.421Z,16.20
2018-06-12T03:37:35.685Z,16.30
2018-06-12T03:38:08.971Z,16.10
2018-06-12T03:38:42.301Z,16.20
2018-06-12T03:39:15.551Z,16.20
2018-06-12T03:39:48.793Z,16.20
2018-06-12T03:40:22.091Z,16.30
2018-06-12T03:40:55.345Z,16.30
2018-06-12T03:41:28.595Z,16.10
2018-06-12T03:42:01.870Z,16.10
2018-06-12T03:42:35.151Z,16.20
2018-06-12T03:43:08.516Z,16.10
2018-06-12T03:43:41.772Z,16.10
2018-06-12T03:44:15.063Z,16.20
2018-06-12T03:44:48.263Z,16.20
2018-06-12T03:45:21.535Z,16.10
2018-06-12T03:45:54.795Z,16.10
2018-06-12T03:46:28.058Z,16.20
2018-06-12T03:47:01.287Z,16.10
2018-06-12T03:47:34.581Z,16.20
2018-06-12T03:48:07.847Z,16.00
2018-06-12T03:48:41.117Z,16.00
2018-06-12T03:49:14.355Z,16.10
2018-06-12T03:49:47.603Z,16.10
2018-06-12T03:50:20.844Z,16.20
2018-06-12T03:50:54.175Z,16.10
2018-06-12T03:51:27.427Z,16.10
2018-06-12T03:52:00.721Z,16.20
2018-06-12T03:52:33.977Z,16.10
2018-06-12T03:53:07.235Z,16.10
2018-06-12T03:53:40.679Z,16.20
2018-06-12T03:54:13.919Z,16.10
2018-06-12T03:54:47.169Z,16.10
2018-06-12T03:55:20.419Z,16.10
2018-06-12T03:55:53.667Z,16.20
2018-06-12T03:56:26.905Z,16.20
2018-06-12T03:57:00.190Z,16.20
2018-06-12T03:57:33.473Z,16.10
2018-06-12T03:58:06.698Z,16.10
2018-06-12T03:58:39.959Z,16.10
2018-06-12T03:59:13.187Z,16.20
2018-06-12T03:59:46.435Z,16.30
2018-06-12T04:00:19.683Z,16.40
2018-06-12T04:00:52.929Z,16.30
2018-06-12T04:01:26.181Z,16.40
2018-06-12T04:01:59.452Z,16.30
2018-06-12T04:02:32.706Z,16.30
2018-06-12T04:03:05.933Z,16.40
2018-06-12T04:03:39.195Z,16.40
2018-06-12T04:04:12.430Z,16.40
2018-06-12T04:04:45.689Z,16.40
2018-06-12T04:05:18.954Z,16.30
2018-06-12T04:05:52.205Z,16.40
2018-06-12T04:06:25.457Z,16.40
2018-06-12T04:06:58.705Z,16.40
2018-06-12T04:07:32.012Z,16.20
2018-06-12T04:08:05.313Z,16.30
2018-06-12T04:08:38.639Z,16.20
2018-06-12T04:09:11.880Z,16.20
2018-06-12T04:09:45.121Z,16.30
2018-06-12T04:10:18.435Z,16.30
2018-06-12T04:10:51.665Z,16.30
2018-06-12T04:11:24.915Z,16.30
2018-06-12T04:11:58.135Z,16.10
2018-06-12T04:12:31.338Z,16.20
2018-06-12T04:13:04.635Z,16.20
2018-06-12T04:13:37.901Z,16.20
2018-06-12T04:14:11.147Z,16.30
2018-06-12T04:14:44.434Z,16.30
2018-06-12T04:15:17.671Z,16.30
2018-06-12T04:15:50.947Z,16.30
2018-06-12T04:16:24.177Z,16.40
2018-06-12T04:16:57.395Z,16.40
2018-06-12T04:17:30.655Z,16.50
2018-06-12T04:18:03.985Z,16.30
2018-06-12T04:18:37.281Z,16.50
2018-06-12T04:19:10.535Z,16.30
2018-06-12T04:19:43.763Z,16.40
2018-06-12T04:20:16.963Z,16.40
2018-06-12T04:20:50.203Z,16.40
2018-06-12T04:21:23.479Z,16.50
2018-06-12T04:21:56.753Z,16.50
2018-06-12T04:22:30.061Z,16.50
2018-06-12T04:23:03.353Z,16.50
2018-06-12T04:23:36.617Z,16.50
2018-06-12T04:24:09.877Z,16.50
2018-06-12T04:24:43.200Z,16.50
2018-06-12T04:25:16.453Z,16.60
2018-06-12T04:25:49.739Z,16.60
2018-06-12T04:26:23.007Z,16.60
2018-06-12T04:26:56.265Z,16.70
2018-06-12T04:27:29.529Z,16.60
2018-06-12T04:28:02.780Z,16.70
2018-06-12T04:28:36.075Z,16.60
2018-06-12T04:29:09.367Z,16.60
2018-06-12T04:29:42.625Z,16.50
2018-06-12T04:30:15.963Z,16.50
2018-06-12T04:30:49.205Z,16.50
2018-06-12T04:31:22.479Z,16.60
2018-06-12T04:31:55.787Z,16.60
2018-06-12T04:32:29.043Z,16.60
2018-06-12T04:33:02.309Z,16.60
2018-06-12T04:33:35.561Z,16.60
2018-06-12T04:34:08.851Z,16.70
2018-06-12T04:34:42.075Z,16.60
2018-06-12T04:35:15.335Z,16.70
2018-06-12T04:35:48.577Z,16.70
2018-06-12T04:36:21.885Z,16.80
2018-06-12T04:36:55.517Z,16.70
2018-06-12T04:37:28.793Z,16.70
2018-06-12T04:38:02.085Z,16.70
2018-06-12T04:38:35.312Z,16.60
2018-06-12T04:39:08.575Z,16.60
2018-06-12T04:39:41.855Z,16.50
2018-06-12T04:40:15.101Z,16.50
2018-06-12T04:40:48.365Z,16.60
2018-06-12T04:41:21.617Z,16.60
2018-06-12T04:41:54.863Z,16.60
2018-06-12T04:42:28.120Z,16.60
2018-06-12T04:43:01.569Z,16.60
2018-06-12T04:43:34.831Z,16.70
2018-06-12T04:44:08.025Z,16.70
2018-06-12T04:44:41.295Z,16.70
2018-06-12T04:45:14.561Z,16.60
2018-06-12T04:45:47.780Z,16.70
2018-06-12T04:46:21.007Z,16.60
2018-06-12T04:46:54.235Z,16.50
2018-06-12T04:47:27.508Z,16.50
2018-06-12T04:48:00.758Z,16.40
2018-06-12T04:48:34.024Z,16.50
2018-06-12T04:49:07.235Z,16.50
2018-06-12T04:49:40.483Z,16.60
2018-06-12T04:50:13.740Z,16.60
2018-06-12T04:50:47.028Z,16.60
2018-06-12T04:51:20.241Z,16.60
2018-06-12T04:51:53.518Z,16.70
2018-06-12T04:52:26.735Z,16.70
2018-06-12T04:52:59.966Z,16.80
2018-06-12T04:53:33.201Z,16.70
2018-06-12T04:54:06.484Z,16.70
2018-06-12T04:54:39.749Z,16.80
2018-06-12T04:55:13.072Z,16.70
2018-06-12T04:55:46.386Z,16.90
2018-06-12T04:56:19.623Z,16.90
2018-06-12T04:56:52.864Z,16.80
2018-06-12T04:57:26.135Z,17.00
2018-06-12T04:57:59.398Z,17.00
2018-06-12T04:58:32.671Z,16.80
2018-06-12T04:59:05.909Z,16.90
2018-06-12T04:59:39.143Z,16.90
2018-06-12T05:00:12.405Z,17.00
2018-06-12T05:00:45.657Z,17.00
2018-06-12T05:01:19.645Z,17.00
2018-06-12T05:01:58.063Z,17.10
2018-06-12T05:02:31.304Z,17.10
2018-06-12T05:03:04.561Z,16.90
2018-06-12T05:03:37.824Z,17.00
2018-06-12T05:04:11.056Z,17.00
2018-06-12T05:04:44.321Z,17.00
2018-06-12T05:05:17.705Z,17.00
2018-06-12T05:05:51.079Z,17.10
2018-06-12T05:06:24.320Z,17.10
2018-06-12T05:06:57.565Z,17.00
2018-06-12T05:07:30.793Z,16.80
2018-06-12T05:08:04.071Z,16.90
2018-06-12T05:08:37.303Z,16.90
2018-06-12T05:09:10.567Z,17.10
2018-06-12T05:09:43.809Z,17.00
2018-06-12T05:10:17.076Z,16.80
2018-06-12T05:10:50.331Z,16.90
2018-06-12T05:11:23.567Z,16.90
2018-06-12T05:11:56.793Z,16.90
2018-06-12T05:12:30.123Z,16.80
2018-06-12T05:13:03.433Z,16.90
2018-06-12T05:13:36.715Z,16.90
2018-06-12T05:14:10.005Z,16.90
2018-06-12T05:14:43.289Z,16.80
2018-06-12T05:15:16.536Z,16.70
2018-06-12T05:15:49.791Z,16.70
2018-06-12T05:16:23.057Z,16.80
2018-06-12T05:16:56.305Z,16.80
2018-06-12T05:17:29.580Z,16.90
2018-06-12T05:18:02.871Z,16.70
2018-06-12T05:18:36.131Z,16.90
2018-06-12T05:19:09.418Z,16.90
2018-06-12T05:19:42.728Z,17.00
2018-06-12T05:20:15.983Z,17.10
2018-06-12T05:20:49.247Z,17.20
2018-06-12T05:21:22.471Z,17.10
2018-06-12T05:21:55.717Z,17.20
2018-06-12T05:22:28.975Z,17.20
2018-06-12T05:23:02.265Z,17.20
2018-06-12T05:23:35.519Z,17.30
2018-06-12T05:24:08.808Z,17.30
2018-06-12T05:24:42.035Z,17.30
2018-06-12T05:25:15.271Z,17.30
2018-06-12T05:25:48.563Z,17.30
2018-06-12T05:26:21.809Z,17.30
2018-06-12T05:26:55.097Z,17.30
2018-06-12T05:27:28.413Z,17.30
2018-06-12T05:28:01.659Z,17.20
2018-06-12T05:28:34.886Z,17.30
2018-06-12T05:29:08.132Z,17.40
2018-06-12T05:29:41.359Z,17.30
2018-06-12T05:30:14.620Z,17.20
2018-06-12T05:30:47.879Z,17.30
2018-06-12T05:31:21.143Z,17.30
2018-06-12T05:31:54.441Z,17.30
2018-06-12T05:32:27.708Z,17.30
2018-06-12T05:33:00.997Z,17.40
2018-06-12T05:33:34.297Z,17.30
2018-06-12T05:34:07.627Z,17.30
2018-06-12T05:34:40.891Z,17.30
2018-06-12T05:35:14.197Z,17.30
2018-06-12T05:35:47.471Z,17.20
2018-06-12T05:36:20.783Z,17.10
2018-06-12T05:36:54.051Z,17.10
2018-06-12T05:37:27.353Z,17.20
2018-06-12T05:38:00.610Z,17.20
2018-06-12T05:38:33.873Z,17.20
2018-06-12T05:39:11.169Z,17.30
2018-06-12T05:39:44.435Z,17.20
2018-06-12T05:40:17.671Z,17.30
2018-06-12T05:40:50.929Z,17.30
2018-06-12T05:41:24.189Z,17.10
2018-06-12T05:41:57.511Z,17.10
2018-06-12T05:42:30.763Z,17.20
2018-06-12T05:43:04.059Z,17.20
2018-06-12T05:43:37.339Z,17.20
2018-06-12T05:44:10.585Z,17.30
2018-06-12T05:44:43.811Z,17.30
2018-06-12T05:45:17.055Z,17.10
2018-06-12T05:45:50.309Z,17.10
2018-06-12T05:46:23.647Z,17.00
2018-06-12T05:46:56.931Z,17.10
2018-06-12T05:47:30.205Z,17.10
2018-06-12T05:48:03.533Z,17.10
2018-06-12T05:48:36.796Z,17.20
2018-06-12T05:49:10.045Z,17.10
2018-06-12T05:49:43.300Z,17.10
2018-06-12T05:50:16.552Z,17.10
2018-06-12T05:50:49.827Z,17.10
2018-06-12T05:51:23.144Z,17.10
2018-06-12T05:51:56.484Z,17.30
2018-06-12T05:52:29.717Z,17.30
2018-06-12T05:53:02.991Z,17.20
2018-06-12T05:53:36.265Z,17.30
2018-06-12T05:54:09.517Z,17.30
2018-06-12T05:54:42.829Z,17.40
2018-06-12T05:55:16.074Z,17.30
2018-06-12T05:55:49.392Z,17.30
2018-06-12T05:56:22.651Z,17.30
2018-06-12T05:56:55.908Z,17.30
2018-06-12T05:57:29.155Z,17.40
2018-06-12T05:58:02.670Z,17.50
2018-06-12T05:58:35.871Z,17.60
2018-06-12T05:59:09.123Z,17.50
2018-06-12T05:59:42.342Z,17.50
2018-06-12T06:00:15.599Z,17.60
2018-06-12T06:00:48.821Z,17.50
2018-06-12T06:01:22.126Z,17.70
2018-06-12T06:01:55.297Z,17.40
2018-06-12T06:02:28.556Z,17.50
2018-06-12T06:03:01.804Z,17.60
2018-06-12T06:03:35.026Z,17.50
2018-06-12T06:04:08.261Z,17.70
2018-06-12T06:04:41.489Z,17.70
2018-06-12T06:05:14.717Z,17.60
2018-06-12T06:05:47.954Z,17.70
2018-06-12T06:06:21.233Z,17.50
2018-06-12T06:06:54.497Z,17.60
2018-06-12T06:07:27.733Z,17.40
2018-06-12T06:08:00.964Z,17.40
2018-06-12T06:08:34.173Z,17.40
2018-06-12T06:09:08.152Z,17.50
2018-06-12T06:09:41.402Z,17.50
2018-06-12T06:10:14.649Z,17.70
2018-06-12T06:10:47.920Z,17.70
2018-06-12T06:11:21.173Z,17.70
2018-06-12T06:11:54.423Z,17.70
2018-06-12T06:12:27.658Z,17.80
2018-06-12T06:13:00.936Z,17.80
2018-06-12T06:13:34.188Z,17.70
2018-06-12T06:14:07.455Z,17.80
2018-06-12T06:14:40.690Z,17.70
2018-06-12T06:15:13.977Z,17.70
2018-06-12T06:15:47.233Z,17.70
2018-06-12T06:16:20.486Z,17.80
2018-06-12T06:16:53.729Z,17.70
2018-06-12T06:17:26.958Z,17.70
2018-06-12T06:18:00.197Z,17.70
2018-06-12T06:18:33.422Z,17.60
2018-06-12T06:19:06.643Z,17.70
2018-06-12T06:19:39.882Z,17.70
2018-06-12T06:20:13.132Z,17.80
2018-06-12T06:20:46.358Z,17.80
2018-06-12T06:21:19.636Z,17.80
2018-06-12T06:21:52.885Z,17.80
2018-06-12T06:22:26.189Z,17.90
2018-06-12T06:22:59.420Z,18.00
2018-06-12T06:23:32.663Z,18.00
2018-06-12T06:24:05.912Z,17.80
2018-06-12T06:24:39.160Z,17.90
2018-06-12T06:25:12.484Z,17.90
2018-06-12T06:25:45.743Z,18.00
2018-06-12T06:26:19.032Z,18.10
2018-06-12T06:26:52.338Z,18.20
2018-06-12T06:27:25.561Z,18.30
2018-06-12T06:27:58.803Z,18.40
2018-06-12T06:28:32.053Z,18.30
2018-06-12T06:29:05.398Z,18.60
2018-06-12T06:29:38.674Z,18.70
2018-06-12T06:30:11.892Z,18.70
2018-06-12T06:30:45.147Z,18.60
2018-06-12T06:31:18.517Z,18.70
2018-06-12T06:31:51.758Z,18.50
2018-06-12T06:32:25.004Z,18.60
2018-06-12T06:32:58.265Z,18.30
2018-06-12T06:33:31.585Z,18.20
2018-06-12T06:34:04.887Z,18.40
2018-06-12T06:34:38.155Z,18.40
2018-06-12T06:35:11.412Z,18.40
2018-06-12T06:35:44.687Z,18.50
2018-06-12T06:36:17.927Z,18.40
2018-06-12T06:36:51.121Z,18.30
2018-06-12T06:37:24.446Z,18.30
2018-06-12T06:37:57.773Z,18.30
2018-06-12T06:38:31.059Z,18.30
2018-06-12T06:39:07.069Z,18.40
2018-06-12T06:39:40.329Z,18.60
2018-06-12T06:40:13.567Z,18.60
2018-06-12T06:40:46.828Z,18.30
2018-06-12T06:41:20.081Z,18.20
2018-06-12T06:41:53.373Z,18.10
2018-06-12T06:42:26.599Z,18.10
2018-06-12T06:42:59.830Z,18.10
2018-06-12T06:43:33.139Z,18.30
2018-06-12T06:44:06.464Z,18.10
2018-06-12T06:44:39.663Z,17.90
2018-06-12T06:45:12.947Z,17.80
2018-06-12T06:45:46.174Z,17.50
2018-06-12T06:46:19.414Z,17.50
2018-06-12T06:46:52.633Z,17.50
2018-06-12T06:47:25.935Z,17.40
2018-06-12T06:47:59.289Z,17.60
2018-06-12T06:48:32.539Z,17.60
2018-06-12T06:49:05.808Z,17.60
2018-06-12T06:49:39.043Z,17.50
2018-06-12T06:50:12.293Z,17.60
2018-06-12T06:50:45.525Z,17.90
2018-06-12T06:51:18.819Z,17.90
2018-06-12T06:51:52.040Z,17.80
2018-06-12T06:52:25.356Z,17.60
2018-06-12T06:52:58.577Z,17.70
2018-06-12T06:53:31.840Z,17.60
2018-06-12T06:54:05.107Z,17.60
2018-06-12T06:54:38.883Z,17.40
2018-06-12T06:55:12.095Z,17.50
2018-06-12T06:55:45.329Z,17.30
2018-06-12T06:56:18.539Z,17.30
2018-06-12T06:56:51.789Z,17.40
2018-06-12T06:57:25.017Z,17.40
2018-06-12T06:57:58.250Z,17.20
2018-06-12T06:58:31.469Z,17.10
2018-06-12T06:59:04.781Z,17.10
2018-06-12T06:59:38.047Z,17.20
2018-06-12T07:00:11.297Z,17.40
2018-06-12T07:00:44.595Z,17.40
2018-06-12T07:01:17.841Z,17.50
2018-06-12T07:01:51.049Z,17.70
2018-06-12T07:02:24.314Z,17.50
2018-06-12T07:02:57.631Z,17.60
2018-06-12T07:03:30.844Z,17.60
2018-06-12T07:04:04.137Z,17.60
2018-06-12T07:04:37.400Z,17.70
2018-06-12T07:05:10.649Z,17.50
2018-06-12T07:05:43.923Z,17.60
2018-06-12T07:06:17.239Z,17.50
2018-06-12T07:06:50.461Z,17.40
2018-06-12T07:07:23.819Z,17.50
2018-06-12T07:07:57.125Z,17.50
2018-06-12T07:08:30.400Z,17.40
2018-06-12T07:09:06.775Z,17.50
2018-06-12T07:09:39.980Z,17.40
2018-06-12T07:10:13.245Z,17.50
2018-06-12T07:10:46.471Z,17.60
2018-06-12T07:11:19.718Z,17.60
2018-06-12T07:11:52.975Z,17.70
2018-06-12T07:12:26.230Z,17.80
2018-06-12T07:12:59.492Z,17.50
2018-06-12T07:13:32.734Z,17.50
2018-06-12T07:14:05.993Z,17.50
2018-06-12T07:14:39.225Z,17.50
2018-06-12T07:15:12.468Z,17.50
2018-06-12T07:15:45.695Z,17.50
2018-06-12T07:16:19.030Z,17.70
2018-06-12T07:16:52.292Z,17.60
2018-06-12T07:17:25.592Z,17.50
2018-06-12T07:17:58.906Z,17.60
2018-06-12T07:18:32.138Z,17.40
2018-06-12T07:19:05.384Z,17.50